createdAt,value
2015-02-26T06:14:36.929Z,21.2
2015-02-26T06:14:54.988Z,21.2
2015-02-26T06:15:13.667Z,21.2
2015-02-26T06:15:32.347Z,21.2
2015-02-26T06:15:51.027Z,21.2
2015-02-26T06:16:09.061Z,21.2
2015-02-26T06:16:27.755Z,21.1
2015-02-26T06:16:46.424Z,21.1
2015-02-26T06:17:05.102Z,21.2
2015-02-26T06:17:23.780Z,21.1
2015-02-26T06:17:42.466Z,21.1
2015-02-26T06:18:01.148Z,21.1
2015-02-26T06:18:19.843Z,21.1
2015-02-26T06:18:38.524Z,21.1
2015-02-26T06:18:57.207Z,21.1
2015-02-26T06:19:15.719Z,21.1
2015-02-26T06:19:34.412Z,21.1
2015-02-26T06:19:53.092Z,21.1
2015-02-26T06:20:11.758Z,21.1
2015-02-26T06:20:30.455Z,21.1
2015-02-26T06:20:49.137Z,21.1
2015-02-26T06:21:07.815Z,21.1
2015-02-26T06:21:26.493Z,21.1
2015-02-26T06:21:45.185Z,21.1
2015-02-26T06:22:03.861Z,21.1
2015-02-26T06:22:22.545Z,21.1
2015-02-26T06:22:41.211Z,21.1
2015-02-26T06:22:59.906Z,21.1
2015-02-26T06:23:18.585Z,21.1
2015-02-26T06:23:37.275Z,21.1
2015-02-26T06:23:55.942Z,21.1
2015-02-26T06:24:14.621Z,21.1
2015-02-26T06:24:33.320Z,21.1
2015-02-26T06:24:51.986Z,21.1
2015-02-26T06:25:10.667Z,21.1
2015-02-26T06:25:29.355Z,21.1
2015-02-26T06:25:48.028Z,21.1
2015-02-26T06:26:06.707Z,21.1
2015-02-26T06:26:25.386Z,21.1
2015-02-26T06:26:44.072Z,21.1
2015-02-26T06:27:02.750Z,21.1
2015-02-26T06:27:21.430Z,21.1
2015-02-26T06:27:39.470Z,21.1
2015-02-26T06:27:57.510Z,21.1
2015-02-26T06:28:16.202Z,21.1
2015-02-26T06:28:34.874Z,21.1
2015-02-26T06:28:53.551Z,21
2015-02-26T06:29:12.241Z,21
2015-02-26T06:29:30.918Z,21.1
2015-02-26T06:29:49.607Z,21.1
2015-02-26T06:30:08.275Z,21.1
2015-02-26T06:30:26.964Z,21.1
2015-02-26T06:30:45.639Z,21.1
2015-02-26T06:31:04.315Z,21.1
2015-02-26T06:31:23.006Z,21.1
2015-02-26T06:31:41.678Z,21.1
2015-02-26T06:32:00.347Z,21.1
2015-02-26T06:32:19.040Z,21.1
2015-02-26T06:32:37.719Z,21.1
2015-02-26T06:32:56.399Z,21.1
2015-02-26T06:33:15.062Z,21.1
2015-02-26T06:33:33.741Z,21.1
2015-02-26T06:33:52.421Z,21.1
2015-02-26T06:34:11.115Z,21.1
2015-02-26T06:34:29.798Z,21.1
2015-02-26T06:34:48.510Z,21.1
2015-02-26T06:35:07.194Z,21.1
2015-02-26T06:35:25.866Z,21.1
2015-02-26T06:35:44.548Z,21.1
2015-02-26T06:36:03.229Z,21.1
2015-02-26T06:36:21.908Z,21.1
2015-02-26T06:36:40.595Z,21.1
2015-02-26T06:36:59.287Z,21.1
2015-02-26T06:37:17.953Z,21.1
2015-02-26T06:37:36.649Z,21.1
2015-02-26T06:37:55.321Z,21.2
2015-02-26T06:38:14.006Z,21.1
2015-02-26T06:38:32.697Z,21.1
2015-02-26T06:38:51.367Z,21.2
2015-02-26T06:39:10.046Z,21.2
2015-02-26T06:39:28.737Z,21.2
2015-02-26T06:39:47.405Z,21.2
2015-02-26T06:40:06.085Z,21.2
2015-02-26T06:40:24.785Z,21.2
2015-02-26T06:40:43.472Z,21.2
2015-02-26T06:41:02.166Z,21.2
2015-02-26T06:41:20.850Z,21.2
2015-02-26T06:41:39.534Z,21.2
2015-02-26T06:41:58.199Z,21.2
2015-02-26T06:42:16.722Z,21.2
2015-02-26T06:42:35.400Z,21.2
2015-02-26T06:42:54.107Z,21.2
2015-02-26T06:43:12.778Z,21.2
2015-02-26T06:43:31.444Z,21.2
2015-02-26T06:43:50.126Z,21.2
2015-02-26T06:44:08.803Z,21.2
2015-02-26T06:44:27.482Z,21.2
2015-02-26T06:44:46.171Z,21.2
2015-02-26T06:45:04.856Z,21.2
2015-02-26T06:45:23.538Z,21.2
2015-02-26T06:45:42.211Z,21.2
2015-02-26T06:46:00.889Z,21.2
2015-02-26T06:46:19.573Z,21.2
2015-02-26T06:46:38.256Z,21.2
2015-02-26T06:46:56.954Z,21.2
2015-02-26T06:47:15.618Z,21.2
2015-02-26T06:47:34.311Z,21.2
2015-02-26T06:47:52.982Z,21.2
2015-02-26T06:48:11.657Z,21.2
2015-02-26T06:48:30.332Z,21.2
2015-02-26T06:48:49.011Z,21.2
2015-02-26T06:49:07.706Z,21.2
2015-02-26T06:49:26.374Z,21.3
2015-02-26T06:49:45.057Z,21.2
2015-02-26T06:50:03.736Z,21.2
2015-02-26T06:50:22.415Z,21.2
2015-02-26T06:50:41.093Z,21.3
2015-02-26T06:50:59.783Z,21.3
2015-02-26T06:51:18.451Z,21.3
2015-02-26T06:51:37.131Z,21.3
2015-02-26T06:51:55.821Z,21.3
2015-02-26T06:52:14.509Z,21.2
2015-02-26T06:52:33.179Z,21.2
2015-02-26T06:52:51.862Z,21.3
2015-02-26T06:53:10.554Z,21.3
2015-02-26T06:53:29.231Z,21.2
2015-02-26T06:53:47.906Z,21.2
2015-02-26T06:54:06.584Z,21.2
2015-02-26T06:54:25.265Z,21.2
2015-02-26T06:54:43.946Z,21.2
2015-02-26T06:55:02.625Z,21.3
2015-02-26T06:55:21.302Z,21.3
2015-02-26T06:55:39.981Z,21.3
2015-02-26T06:55:58.661Z,21.3
2015-02-26T06:56:17.338Z,21.3
2015-02-26T06:56:36.018Z,21.3
2015-02-26T06:56:54.700Z,21.3
2015-02-26T06:57:13.392Z,21.2
2015-02-26T06:57:32.039Z,21.2
2015-02-26T06:57:50.723Z,21.3
2015-02-26T06:58:09.407Z,21.3
2015-02-26T06:58:28.084Z,21.3
2015-02-26T06:58:46.779Z,21.2
2015-02-26T06:59:05.446Z,21.2
2015-02-26T06:59:24.125Z,21.2
2015-02-26T06:59:42.817Z,21.2
2015-02-26T07:00:01.486Z,21.2
2015-02-26T07:00:20.166Z,21.2
2015-02-26T07:00:38.862Z,21.2
2015-02-26T07:00:57.529Z,21.2
2015-02-26T07:01:16.215Z,21.2
2015-02-26T07:01:34.905Z,21.2
2015-02-26T07:01:53.590Z,21.2
2015-02-26T07:02:12.255Z,21.2
2015-02-26T07:02:30.941Z,21.2
2015-02-26T07:02:49.619Z,21.2
2015-02-26T07:03:08.138Z,21.2
2015-02-26T07:03:26.827Z,21.2
2015-02-26T07:03:45.507Z,21.2
2015-02-26T07:04:04.189Z,21.2
2015-02-26T07:04:22.870Z,21.2
2015-02-26T07:04:41.549Z,21.2
2015-02-26T07:05:00.230Z,21.2
2015-02-26T07:05:18.905Z,21.2
2015-02-26T07:05:37.586Z,21.2
2015-02-26T07:05:56.285Z,21.2
2015-02-26T07:06:14.956Z,21.2
2015-02-26T07:06:33.651Z,21.2
2015-02-26T07:06:52.161Z,21.2
2015-02-26T07:07:10.840Z,21.2
2015-02-26T07:07:29.518Z,21.2
2015-02-26T07:07:48.201Z,21.2
2015-02-26T07:08:06.878Z,21.2
2015-02-26T07:08:25.561Z,21.2
2015-02-26T07:08:44.249Z,21.2
2015-02-26T07:09:02.934Z,21.2
2015-02-26T07:09:21.607Z,21.2
2015-02-26T07:09:40.296Z,21.2
2015-02-26T07:09:58.967Z,21.2
2015-02-26T07:10:17.648Z,21.2
2015-02-26T07:10:36.335Z,21.2
2015-02-26T07:10:55.010Z,21.2
2015-02-26T07:11:13.705Z,21.2
2015-02-26T07:11:32.371Z,21.3
2015-02-26T07:11:51.053Z,21.2
2015-02-26T07:12:09.749Z,21.3
2015-02-26T07:12:28.414Z,21.3
2015-02-26T07:12:47.108Z,21.3
2015-02-26T07:13:05.784Z,21.3
2015-02-26T07:13:24.465Z,21.3
2015-02-26T07:13:43.153Z,21.3
2015-02-26T07:14:01.825Z,21.3
2015-02-26T07:14:19.854Z,21.3
2015-02-26T07:14:38.534Z,21.3
2015-02-26T07:14:57.212Z,21.3
2015-02-26T07:15:15.892Z,21.3
2015-02-26T07:15:34.572Z,21.3
2015-02-26T07:15:53.257Z,21.2
2015-02-26T07:16:11.937Z,21.3
2015-02-26T07:16:30.627Z,21.3
2015-02-26T07:16:49.308Z,21.3
2015-02-26T07:17:07.993Z,21.3
2015-02-26T07:17:26.670Z,21.3
2015-02-26T07:17:45.353Z,21.3
2015-02-26T07:18:04.035Z,21.3
2015-02-26T07:18:22.718Z,21.3
2015-02-26T07:18:41.396Z,21.3
2015-02-26T07:19:00.077Z,21.3
2015-02-26T07:19:18.760Z,21.3
2015-02-26T07:19:37.435Z,21.3
2015-02-26T07:19:56.126Z,21.3
2015-02-26T07:20:14.802Z,21.3
2015-02-26T07:20:33.498Z,21.3
2015-02-26T07:20:52.172Z,21.3
2015-02-26T07:21:10.855Z,21.3
2015-02-26T07:21:29.547Z,21.3
2015-02-26T07:21:48.233Z,21.3
2015-02-26T07:22:06.903Z,21.3
2015-02-26T07:22:25.580Z,21.3
2015-02-26T07:22:44.262Z,21.3
2015-02-26T07:23:02.954Z,21.3
2015-02-26T07:23:21.621Z,21.3
2015-02-26T07:23:40.303Z,21.3
2015-02-26T07:23:58.981Z,21.3
2015-02-26T07:24:17.676Z,21.3
2015-02-26T07:24:36.344Z,21.3
2015-02-26T07:24:55.028Z,21.3
2015-02-26T07:25:13.723Z,21.3
2015-02-26T07:25:32.387Z,21.3
2015-02-26T07:25:51.071Z,21.3
2015-02-26T07:26:09.751Z,21.3
2015-02-26T07:26:28.432Z,21.3
2015-02-26T07:26:47.125Z,21.2
2015-02-26T07:27:05.793Z,21.3
2015-02-26T07:27:24.475Z,21.3
2015-02-26T07:27:43.159Z,21.2
2015-02-26T07:28:01.841Z,21.2
2015-02-26T07:28:20.520Z,21.2
2015-02-26T07:28:39.216Z,21.2
2015-02-26T07:28:57.884Z,21.2
2015-02-26T07:29:16.565Z,21.2
2015-02-26T07:29:35.243Z,21.2
2015-02-26T07:29:53.937Z,21.2
2015-02-26T07:30:12.620Z,21.2
2015-02-26T07:30:31.297Z,21.2
2015-02-26T07:30:49.979Z,21.3
2015-02-26T07:31:08.696Z,21.3
2015-02-26T07:31:27.340Z,21.2
2015-02-26T07:31:46.019Z,21.2
2015-02-26T07:32:04.703Z,21.2
2015-02-26T07:32:23.387Z,21.2
2015-02-26T07:32:42.075Z,21.2
2015-02-26T07:33:00.743Z,21.2
2015-02-26T07:33:19.425Z,21.3
2015-02-26T07:33:38.106Z,21.3
2015-02-26T07:33:56.796Z,21.3
2015-02-26T07:34:15.486Z,21.2
2015-02-26T07:34:34.162Z,21.2
2015-02-26T07:34:52.846Z,21.2
2015-02-26T07:35:11.541Z,21.2
2015-02-26T07:35:30.207Z,21.2
2015-02-26T07:35:48.890Z,21.3
2015-02-26T07:36:07.573Z,21.2
2015-02-26T07:36:26.259Z,21.2
2015-02-26T07:36:44.941Z,21.2
2015-02-26T07:37:03.625Z,21.2
2015-02-26T07:37:22.307Z,21.3
2015-02-26T07:37:40.989Z,21.3
2015-02-26T07:37:59.669Z,21.3
2015-02-26T07:38:18.361Z,21.3
2015-02-26T07:38:37.037Z,21.3
2015-02-26T07:38:55.714Z,21.3
2015-02-26T07:39:14.403Z,21.3
2015-02-26T07:39:33.074Z,21.2
2015-02-26T07:39:51.756Z,21.3
2015-02-26T07:40:10.448Z,21.3
2015-02-26T07:40:29.121Z,21.3
2015-02-26T07:40:47.797Z,21.3
2015-02-26T07:41:06.497Z,21.3
2015-02-26T07:41:25.161Z,21.3
2015-02-26T07:41:43.842Z,21.3
2015-02-26T07:42:02.527Z,21.3
2015-02-26T07:42:21.213Z,21.3
2015-02-26T07:42:39.903Z,21.3
2015-02-26T07:42:58.584Z,21.3
2015-02-26T07:43:17.262Z,21.3
2015-02-26T07:43:35.928Z,21.3
2015-02-26T07:43:54.623Z,21.3
2015-02-26T07:44:13.148Z,21.3
2015-02-26T07:44:31.822Z,21.3
2015-02-26T07:44:50.503Z,21.3
2015-02-26T07:45:09.184Z,21.3
2015-02-26T07:45:27.885Z,21.3
2015-02-26T07:45:46.558Z,21.3
2015-02-26T07:46:05.245Z,21.3
2015-02-26T07:46:23.925Z,21.3
2015-02-26T07:46:42.619Z,21.3
2015-02-26T07:47:01.301Z,21.3
2015-02-26T07:47:19.989Z,21.3
2015-02-26T07:47:38.666Z,21.3
2015-02-26T07:47:57.355Z,21.3
2015-02-26T07:48:15.875Z,21.3
2015-02-26T07:48:34.567Z,21.3
2015-02-26T07:48:53.239Z,21.3
2015-02-26T07:49:11.930Z,21.3
2015-02-26T07:49:30.470Z,21.4
2015-02-26T07:49:49.152Z,21.4
2015-02-26T07:50:07.828Z,21.4
2015-02-26T07:50:26.506Z,21.3
2015-02-26T07:50:45.185Z,21.3
2015-02-26T07:51:03.865Z,21.4
2015-02-26T07:51:22.549Z,21.4
2015-02-26T07:51:41.227Z,21.3
2015-02-26T07:51:59.910Z,21.4
2015-02-26T07:52:18.592Z,21.4
2015-02-26T07:52:37.272Z,21.3
2015-02-26T07:52:55.957Z,21.3
2015-02-26T07:53:14.642Z,21.3
2015-02-26T07:53:33.336Z,21.3
2015-02-26T07:53:52.002Z,21.3
2015-02-26T07:54:10.682Z,21.3
2015-02-26T07:54:29.358Z,21.3
2015-02-26T07:54:48.041Z,21.3
2015-02-26T07:55:06.736Z,21.3
2015-02-26T07:55:25.403Z,21.3
2015-02-26T07:55:44.087Z,21.3
2015-02-26T07:56:02.767Z,21.3
2015-02-26T07:56:21.446Z,21.4
2015-02-26T07:56:40.139Z,21.3
2015-02-26T07:56:58.812Z,21.3
2015-02-26T07:57:17.504Z,21.4
2015-02-26T07:57:36.189Z,21.4
2015-02-26T07:57:54.717Z,21.4
2015-02-26T07:58:13.396Z,21.4
2015-02-26T07:58:32.091Z,21.4
2015-02-26T07:58:50.768Z,21.4
2015-02-26T07:59:09.436Z,21.4
2015-02-26T07:59:28.129Z,21.4
2015-02-26T07:59:46.801Z,21.4
2015-02-26T08:00:05.490Z,21.4
2015-02-26T08:00:23.537Z,21.4
2015-02-26T08:00:42.213Z,21.4
2015-02-26T08:01:00.887Z,21.4
2015-02-26T08:01:19.565Z,21.4
2015-02-26T08:01:38.247Z,21.4
2015-02-26T08:01:56.927Z,21.4
2015-02-26T08:02:15.609Z,21.4
2015-02-26T08:02:34.293Z,21.4
2015-02-26T08:02:52.978Z,21.4
2015-02-26T08:03:11.690Z,21.4
2015-02-26T08:03:30.346Z,21.4
2015-02-26T08:03:49.024Z,21.4
2015-02-26T08:04:07.707Z,21.4
2015-02-26T08:04:26.391Z,21.4
2015-02-26T08:04:45.070Z,21.4
2015-02-26T08:05:03.764Z,21.4
2015-02-26T08:05:22.454Z,21.4
2015-02-26T08:05:41.133Z,21.4
2015-02-26T08:05:59.803Z,21.4
2015-02-26T08:06:18.484Z,21.4
2015-02-26T08:06:37.164Z,21.4
2015-02-26T08:06:55.842Z,21.4
2015-02-26T08:07:14.520Z,21.4
2015-02-26T08:07:33.215Z,21.4
2015-02-26T08:07:51.882Z,21.4
2015-02-26T08:08:10.567Z,21.4
2015-02-26T08:08:29.244Z,21.4
2015-02-26T08:08:47.941Z,21.4
2015-02-26T08:09:06.620Z,21.4
2015-02-26T08:09:25.299Z,21.4
2015-02-26T08:09:43.976Z,21.4
2015-02-26T08:10:02.656Z,21.4
2015-02-26T08:10:21.332Z,21.4
2015-02-26T08:10:40.013Z,21.4
2015-02-26T08:10:58.697Z,21.4
2015-02-26T08:11:17.376Z,21.4
2015-02-26T08:11:36.062Z,21.4
2015-02-26T08:11:54.742Z,21.4
2015-02-26T08:12:13.424Z,21.4
2015-02-26T08:12:32.122Z,21.4
2015-02-26T08:12:50.788Z,21.4
2015-02-26T08:13:09.468Z,21.4
2015-02-26T08:13:28.151Z,21.4
2015-02-26T08:13:46.836Z,21.4
2015-02-26T08:14:05.510Z,21.4
2015-02-26T08:14:24.197Z,21.4
2015-02-26T08:14:42.882Z,21.4
2015-02-26T08:15:01.549Z,21.4
2015-02-26T08:15:20.232Z,21.4
2015-02-26T08:15:38.914Z,21.4
2015-02-26T08:15:57.620Z,21.4
2015-02-26T08:16:16.278Z,21.4
2015-02-26T08:16:34.964Z,21.4
2015-02-26T08:16:53.646Z,21.4
2015-02-26T08:17:12.325Z,21.4
2015-02-26T08:17:31.003Z,21.4
2015-02-26T08:17:49.688Z,21.4
2015-02-26T08:18:08.362Z,21.4
2015-02-26T08:18:27.043Z,21.4
2015-02-26T08:18:45.737Z,21.4
2015-02-26T08:19:04.410Z,21.4
2015-02-26T08:19:23.088Z,21.4
2015-02-26T08:19:41.612Z,21.4
2015-02-26T08:20:00.292Z,21.4
2015-02-26T08:20:18.976Z,21.4
2015-02-26T08:20:37.664Z,21.4
2015-02-26T08:20:56.349Z,21.4
2015-02-26T08:21:15.031Z,21.4
2015-02-26T08:21:33.707Z,21.4
2015-02-26T08:21:52.389Z,21.4
2015-02-26T08:22:11.069Z,21.4
2015-02-26T08:22:29.743Z,21.4
2015-02-26T08:22:48.424Z,21.4
2015-02-26T08:23:07.104Z,21.4
2015-02-26T08:23:25.785Z,21.4
2015-02-26T08:23:44.465Z,21.4
2015-02-26T08:24:03.145Z,21.4
2015-02-26T08:24:21.823Z,21.4
2015-02-26T08:24:40.506Z,21.4
2015-02-26T08:24:59.183Z,21.4
2015-02-26T08:25:17.860Z,21.4
2015-02-26T08:25:36.548Z,21.4
2015-02-26T08:25:55.221Z,21.4
2015-02-26T08:26:13.912Z,21.4
2015-02-26T08:26:32.451Z,21.4
2015-02-26T08:26:51.113Z,21.4
2015-02-26T08:27:09.796Z,21.4
2015-02-26T08:27:28.479Z,21.4
2015-02-26T08:27:47.171Z,21.4
2015-02-26T08:28:05.849Z,21.4
2015-02-26T08:28:24.525Z,21.4
2015-02-26T08:28:43.205Z,21.4
2015-02-26T08:29:01.890Z,21.4
2015-02-26T08:29:20.570Z,21.4
2015-02-26T08:29:39.249Z,21.4
2015-02-26T08:29:57.933Z,21.4
2015-02-26T08:30:16.610Z,21.4
2015-02-26T08:30:35.309Z,21.4
2015-02-26T08:30:53.992Z,21.4
2015-02-26T08:31:12.675Z,21.4
2015-02-26T08:31:31.360Z,21.4
2015-02-26T08:31:50.043Z,21.4
2015-02-26T08:32:08.735Z,21.4
2015-02-26T08:32:27.411Z,21.4
2015-02-26T08:32:46.099Z,21.4
2015-02-26T08:33:04.785Z,21.4
2015-02-26T08:33:23.462Z,21.4
2015-02-26T08:33:42.128Z,21.4
2015-02-26T08:34:00.810Z,21.4
2015-02-26T08:34:19.497Z,21.4
2015-02-26T08:34:38.177Z,21.4
2015-02-26T08:34:56.863Z,21.4
2015-02-26T08:35:15.552Z,21.4
2015-02-26T08:35:34.227Z,21.4
2015-02-26T08:35:52.900Z,21.4
2015-02-26T08:36:11.584Z,21.4
2015-02-26T08:36:30.262Z,21.4
2015-02-26T08:36:48.941Z,21.4
2015-02-26T08:37:07.633Z,21.4
2015-02-26T08:37:26.299Z,21.4
2015-02-26T08:37:44.992Z,21.4
2015-02-26T08:38:03.680Z,21.4
2015-02-26T08:38:22.349Z,21.4
2015-02-26T08:38:41.026Z,21.4
2015-02-26T08:38:59.715Z,21.4
2015-02-26T08:39:18.385Z,21.4
2015-02-26T08:39:37.067Z,21.4
2015-02-26T08:39:55.752Z,21.4
2015-02-26T08:40:14.427Z,21.4
2015-02-26T08:40:33.107Z,21.4
2015-02-26T08:40:51.786Z,21.4
2015-02-26T08:41:10.473Z,21.4
2015-02-26T08:41:29.170Z,21.4
2015-02-26T08:41:47.834Z,21.4
2015-02-26T08:42:06.516Z,21.4
2015-02-26T08:42:25.195Z,21.4
2015-02-26T08:42:43.873Z,21.4
2015-02-26T08:43:02.556Z,21.4
2015-02-26T08:43:21.255Z,21.4
2015-02-26T08:43:39.916Z,21.4
2015-02-26T08:43:58.612Z,21.4
2015-02-26T08:44:17.280Z,21.4
2015-02-26T08:44:35.963Z,21.4
2015-02-26T08:44:54.660Z,21.4
2015-02-26T08:45:13.326Z,21.4
2015-02-26T08:45:32.003Z,21.4
2015-02-26T08:45:50.684Z,21.4
2015-02-26T08:46:09.366Z,21.4
2015-02-26T08:46:28.044Z,21.4
2015-02-26T08:46:46.722Z,21.4
2015-02-26T08:47:05.406Z,21.4
2015-02-26T08:47:24.097Z,21.5
2015-02-26T08:47:42.768Z,21.4
2015-02-26T08:48:01.451Z,21.5
2015-02-26T08:48:20.131Z,21.5
2015-02-26T08:48:38.809Z,21.4
2015-02-26T08:48:57.487Z,21.4
2015-02-26T08:49:16.164Z,21.4
2015-02-26T08:49:34.840Z,21.4
2015-02-26T08:49:53.523Z,21.4
2015-02-26T08:50:12.202Z,21.4
2015-02-26T08:50:30.880Z,21.4
2015-02-26T08:50:49.571Z,21.5
2015-02-26T08:51:08.249Z,21.4
2015-02-26T08:51:26.928Z,21.5
2015-02-26T08:51:45.622Z,21.5
2015-02-26T08:52:04.292Z,21.5
2015-02-26T08:52:22.972Z,21.5
2015-02-26T08:52:41.658Z,21.4
2015-02-26T08:53:00.333Z,21.4
2015-02-26T08:53:19.011Z,21.5
2015-02-26T08:53:37.691Z,21.5
2015-02-26T08:53:56.371Z,21.5
2015-02-26T08:54:15.057Z,21.5
2015-02-26T08:54:33.745Z,21.5
2015-02-26T08:54:52.433Z,21.5
2015-02-26T08:55:11.115Z,21.5
2015-02-26T08:55:29.795Z,21.5
2015-02-26T08:55:48.479Z,21.5
2015-02-26T08:56:07.172Z,21.5
2015-02-26T08:56:25.698Z,21.5
2015-02-26T08:56:44.379Z,21.5
2015-02-26T08:57:03.065Z,21.5
2015-02-26T08:57:21.754Z,21.5
2015-02-26T08:57:40.420Z,21.5
2015-02-26T08:57:59.110Z,21.5
2015-02-26T08:58:17.794Z,21.5
2015-02-26T08:58:36.471Z,21.5
2015-02-26T08:58:55.153Z,21.5
2015-02-26T08:59:13.838Z,21.5
2015-02-26T08:59:32.513Z,21.5
2015-02-26T08:59:51.209Z,21.5
2015-02-26T09:00:09.897Z,21.5
2015-02-26T09:00:28.566Z,21.5
2015-02-26T09:00:47.249Z,21.5
2015-02-26T09:01:05.933Z,21.5
2015-02-26T09:01:24.627Z,21.5
2015-02-26T09:01:43.310Z,21.5
2015-02-26T09:02:02.000Z,21.5
2015-02-26T09:02:20.677Z,21.5
2015-02-26T09:02:39.373Z,21.5
2015-02-26T09:02:58.045Z,21.5
2015-02-26T09:03:16.726Z,21.5
2015-02-26T09:03:35.393Z,21.5
2015-02-26T09:03:54.073Z,21.5
2015-02-26T09:04:12.753Z,21.5
2015-02-26T09:04:31.436Z,21.5
2015-02-26T09:04:50.123Z,21.5
2015-02-26T09:05:08.814Z,21.5
2015-02-26T09:05:27.499Z,21.5
2015-02-26T09:05:46.180Z,21.5
2015-02-26T09:06:04.865Z,21.5
2015-02-26T09:06:23.542Z,21.5
2015-02-26T09:06:42.233Z,21.5
2015-02-26T09:07:00.918Z,21.5
2015-02-26T09:07:19.597Z,21.5
2015-02-26T09:07:38.275Z,21.5
2015-02-26T09:07:56.306Z,21.5
2015-02-26T09:08:14.989Z,21.5
2015-02-26T09:08:33.677Z,21.5
2015-02-26T09:08:52.355Z,21.5
2015-02-26T09:09:11.034Z,21.5
2015-02-26T09:09:29.710Z,21.5
2015-02-26T09:09:48.389Z,21.5
2015-02-26T09:10:07.070Z,21.5
2015-02-26T09:10:25.747Z,21.5
2015-02-26T09:10:44.430Z,21.5
2015-02-26T09:11:03.114Z,21.5
2015-02-26T09:11:21.805Z,21.5
2015-02-26T09:11:40.484Z,21.5
2015-02-26T09:11:59.167Z,21.5
2015-02-26T09:12:17.854Z,21.6
2015-02-26T09:12:36.527Z,21.5
2015-02-26T09:12:55.226Z,21.5
2015-02-26T09:13:13.894Z,21.5
2015-02-26T09:13:32.576Z,21.5
2015-02-26T09:13:51.249Z,21.5
2015-02-26T09:14:09.932Z,21.5
2015-02-26T09:14:28.612Z,21.5
2015-02-26T09:14:47.294Z,21.5
2015-02-26T09:15:05.978Z,21.5
2015-02-26T09:15:24.662Z,21.6
2015-02-26T09:15:43.347Z,21.6
2015-02-26T09:16:02.028Z,21.5
2015-02-26T09:16:20.706Z,21.5
2015-02-26T09:16:39.385Z,21.5
2015-02-26T09:16:58.063Z,21.5
2015-02-26T09:17:16.748Z,21.5
2015-02-26T09:17:35.433Z,21.5
2015-02-26T09:17:54.118Z,21.5
2015-02-26T09:18:12.794Z,21.5
2015-02-26T09:18:31.470Z,21.5
2015-02-26T09:18:50.151Z,21.5
2015-02-26T09:19:08.835Z,21.5
2015-02-26T09:19:27.512Z,21.5
2015-02-26T09:19:46.198Z,21.5
2015-02-26T09:20:04.889Z,21.5
2015-02-26T09:20:23.564Z,21.5
2015-02-26T09:20:42.236Z,21.5
2015-02-26T09:21:00.920Z,21.5
2015-02-26T09:21:19.609Z,21.5
2015-02-26T09:21:38.287Z,21.5
2015-02-26T09:21:56.969Z,21.6
2015-02-26T09:22:15.652Z,21.5
2015-02-26T09:22:34.335Z,21.5
2015-02-26T09:22:53.021Z,21.5
2015-02-26T09:23:11.718Z,21.6
2015-02-26T09:23:30.395Z,21.6
2015-02-26T09:23:49.065Z,21.5
2015-02-26T09:24:07.770Z,21.5
2015-02-26T09:24:26.445Z,21.5
2015-02-26T09:24:45.136Z,21.5
2015-02-26T09:25:03.821Z,21.6
2015-02-26T09:25:22.532Z,21.6
2015-02-26T09:25:41.183Z,21.6
2015-02-26T09:25:59.865Z,21.6
2015-02-26T09:26:18.550Z,21.6
2015-02-26T09:26:37.229Z,21.6
2015-02-26T09:26:55.917Z,21.6
2015-02-26T09:27:14.587Z,21.6
2015-02-26T09:27:33.273Z,21.6
2015-02-26T09:27:51.958Z,21.6
2015-02-26T09:28:10.640Z,21.6
2015-02-26T09:28:29.321Z,21.6
2015-02-26T09:28:48.005Z,21.6
2015-02-26T09:29:06.687Z,21.6
2015-02-26T09:29:25.369Z,21.6
2015-02-26T09:29:44.042Z,21.5
2015-02-26T09:30:02.726Z,21.6
2015-02-26T09:30:21.402Z,21.5
2015-02-26T09:30:40.081Z,21.5
2015-02-26T09:30:58.762Z,21.6
2015-02-26T09:31:17.449Z,21.5
2015-02-26T09:31:36.130Z,21.6
2015-02-26T09:31:54.815Z,21.6
2015-02-26T09:32:13.495Z,21.6
2015-02-26T09:32:32.174Z,21.6
2015-02-26T09:32:50.856Z,21.6
2015-02-26T09:33:09.536Z,21.6
2015-02-26T09:33:28.220Z,21.6
2015-02-26T09:33:46.897Z,21.6
2015-02-26T09:34:05.588Z,21.6
2015-02-26T09:34:24.273Z,21.6
2015-02-26T09:34:42.952Z,21.5
2015-02-26T09:35:01.481Z,21.5
2015-02-26T09:35:20.168Z,21.5
2015-02-26T09:35:38.857Z,21.5
2015-02-26T09:35:57.519Z,21.5
2015-02-26T09:36:16.207Z,21.5
2015-02-26T09:36:34.886Z,21.5
2015-02-26T09:36:53.565Z,21.5
2015-02-26T09:37:12.255Z,21.5
2015-02-26T09:37:30.935Z,21.5
2015-02-26T09:37:48.988Z,21.5
2015-02-26T09:38:07.669Z,21.5
2015-02-26T09:38:26.352Z,21.5
2015-02-26T09:38:45.039Z,21.5
2015-02-26T09:39:03.723Z,21.5
2015-02-26T09:39:22.400Z,21.5
2015-02-26T09:39:41.082Z,21.5
2015-02-26T09:39:59.768Z,21.5
2015-02-26T09:40:18.446Z,21.5
2015-02-26T09:40:37.127Z,21.5
2015-02-26T09:40:55.811Z,21.5
2015-02-26T09:41:14.496Z,21.5
2015-02-26T09:41:33.175Z,21.5
2015-02-26T09:41:51.861Z,21.5
2015-02-26T09:42:10.547Z,21.5
2015-02-26T09:42:29.235Z,21.4
2015-02-26T09:42:47.919Z,21.4
2015-02-26T09:43:06.601Z,21.4
2015-02-26T09:43:25.293Z,21.4
2015-02-26T09:43:43.964Z,21.4
2015-02-26T09:44:02.651Z,21.4
2015-02-26T09:44:21.328Z,21.4
2015-02-26T09:44:40.030Z,21.4
2015-02-26T09:44:58.699Z,21.4
2015-02-26T09:45:17.383Z,21.4
2015-02-26T09:45:36.059Z,21.4
2015-02-26T09:45:54.742Z,21.4
2015-02-26T09:46:13.420Z,21.4
2015-02-26T09:46:33.270Z,21.4
2015-02-26T09:46:52.713Z,21.4
2015-02-26T09:47:11.402Z,21.4
2015-02-26T09:47:30.085Z,21.4
2015-02-26T09:47:48.768Z,21.4
2015-02-26T09:48:07.475Z,21.4
2015-02-26T09:48:26.154Z,21.4
2015-02-26T09:48:44.824Z,21.4
2015-02-26T09:49:03.509Z,21.4
2015-02-26T09:49:22.191Z,21.5
2015-02-26T09:49:40.878Z,21.5
2015-02-26T09:49:59.561Z,21.5
2015-02-26T09:50:18.240Z,21.5
2015-02-26T09:50:36.919Z,21.5
2015-02-26T09:50:54.950Z,21.5
2015-02-26T09:51:13.637Z,21.5
2015-02-26T09:51:32.319Z,21.5
2015-02-26T09:51:51.002Z,21.5
2015-02-26T09:52:09.681Z,21.5
2015-02-26T09:52:28.366Z,21.5
2015-02-26T09:52:47.046Z,21.5
2015-02-26T09:53:05.726Z,21.5
2015-02-26T09:53:24.408Z,21.5
2015-02-26T09:53:43.088Z,21.5
2015-02-26T09:54:01.774Z,21.5
2015-02-26T09:54:20.476Z,21.5
2015-02-26T09:54:39.159Z,21.5
2015-02-26T09:54:57.841Z,21.5
2015-02-26T09:55:16.524Z,21.5
2015-02-26T09:55:35.208Z,21.5
2015-02-26T09:55:53.887Z,21.5
2015-02-26T09:56:12.411Z,21.5
2015-02-26T09:56:31.093Z,21.5
2015-02-26T09:56:49.773Z,21.5
2015-02-26T09:57:08.458Z,21.5
2015-02-26T09:57:27.173Z,21.5
2015-02-26T09:57:45.844Z,21.5
2015-02-26T09:58:04.528Z,21.5
2015-02-26T09:58:23.209Z,21.5
2015-02-26T09:58:41.889Z,21.5
2015-02-26T09:59:00.568Z,21.5
2015-02-26T09:59:19.248Z,21.5
2015-02-26T09:59:37.931Z,21.5
2015-02-26T09:59:56.613Z,21.5
2015-02-26T10:00:15.317Z,21.5
2015-02-26T10:00:34.001Z,21.5
2015-02-26T10:00:52.685Z,21.5
2015-02-26T10:01:11.366Z,21.5
2015-02-26T10:01:30.048Z,21.5
2015-02-26T10:01:48.735Z,21.5
2015-02-26T10:02:07.431Z,21.5
2015-02-26T10:02:26.095Z,21.5
2015-02-26T10:02:44.781Z,21.5
2015-02-26T10:03:03.481Z,21.5
2015-02-26T10:03:22.162Z,21.5
2015-02-26T10:03:40.846Z,21.5
2015-02-26T10:03:59.524Z,21.5
2015-02-26T10:04:18.238Z,21.6
2015-02-26T10:04:37.026Z,21.6
2015-02-26T10:04:55.706Z,21.6
2015-02-26T10:05:14.386Z,21.6
2015-02-26T10:05:33.067Z,21.6
2015-02-26T10:05:51.751Z,21.6
2015-02-26T10:06:10.437Z,21.6
2015-02-26T10:06:29.141Z,21.6
2015-02-26T10:06:47.834Z,21.6
2015-02-26T10:07:06.513Z,21.6
2015-02-26T10:07:25.193Z,21.6
2015-02-26T10:07:43.875Z,21.6
2015-02-26T10:08:02.556Z,21.6
2015-02-26T10:08:21.238Z,21.6
2015-02-26T10:08:39.925Z,21.6
2015-02-26T10:08:58.608Z,21.6
2015-02-26T10:09:17.299Z,21.6
2015-02-26T10:09:35.973Z,21.6
2015-02-26T10:09:54.674Z,21.6
2015-02-26T10:10:16.346Z,21.6
2015-02-26T10:10:33.779Z,21.6
2015-02-26T10:10:52.474Z,21.6
2015-02-26T10:11:11.147Z,21.6
2015-02-26T10:11:29.824Z,21.6
2015-02-26T10:11:48.505Z,21.6
2015-02-26T10:12:07.198Z,21.6
2015-02-26T10:12:25.865Z,21.6
2015-02-26T10:12:44.547Z,21.6
2015-02-26T10:13:03.227Z,21.6
2015-02-26T10:13:21.911Z,21.6
2015-02-26T10:13:40.590Z,21.6
2015-02-26T10:13:59.272Z,21.6
2015-02-26T10:14:17.955Z,21.6
2015-02-26T10:14:36.647Z,21.6
2015-02-26T10:14:55.329Z,21.6
2015-02-26T10:15:14.009Z,21.7
2015-02-26T10:15:32.693Z,21.7
2015-02-26T10:15:51.381Z,21.7
2015-02-26T10:16:10.053Z,21.7
2015-02-26T10:16:28.731Z,21.7
2015-02-26T10:16:47.411Z,21.7
2015-02-26T10:17:06.087Z,21.7
2015-02-26T10:17:24.769Z,21.7
2015-02-26T10:17:43.448Z,21.7
2015-02-26T10:18:02.138Z,21.7
2015-02-26T10:18:20.811Z,21.7
2015-02-26T10:18:39.496Z,21.7
2015-02-26T10:18:58.180Z,21.7
2015-02-26T10:19:16.861Z,21.7
2015-02-26T10:19:35.538Z,21.7
2015-02-26T10:19:54.225Z,21.7
2015-02-26T10:20:12.900Z,21.7
2015-02-26T10:20:31.578Z,21.7
2015-02-26T10:20:50.260Z,21.7
2015-02-26T10:21:08.943Z,21.7
2015-02-26T10:21:27.629Z,21.7
2015-02-26T10:21:46.305Z,21.7
2015-02-26T10:22:04.989Z,21.7
2015-02-26T10:22:23.675Z,21.7
2015-02-26T10:22:42.342Z,21.7
2015-02-26T10:23:01.021Z,21.7